sensor_id;sensor_type;location;lat;lon;timestamp;pressure;altitude;pressure_sealevel;temperature;humidity
62025;BME280;47978;49.118;12.146;2022-08-02T00:00:50;97601.00;;;17.35;74.60
62025;BME280;47978;49.118;12.146;2022-08-02T00:03:21;97600.31;;;16.93;76.69
62025;BME280;47978;49.118;12.146;2022-08-02T00:05:51;97599.22;;;17.06;76.45
62025;BME280;47978;49.118;12.146;2022-08-02T00:08:19;97600.28;;;17.14;75.42
62025;BME280;47978;49.118;12.146;2022-08-02T00:10:46;97595.50;;;17.26;74.76
62025;BME280;47978;49.118;12.146;2022-08-02T00:13:12;97596.91;;;17.33;74.67
62025;BME280;47978;49.118;12.146;2022-08-02T00:15:39;97591.47;;;17.36;74.78
62025;BME280;47978;49.118;12.146;2022-08-02T00:18:05;97588.19;;;17.34;75.15
62025;BME280;47978;49.118;12.146;2022-08-02T00:20:32;97591.31;;;17.33;75.27
62025;BME280;47978;49.118;12.146;2022-08-02T00:23:00;97578.75;;;17.26;75.93
62025;BME280;47978;49.118;12.146;2022-08-02T00:25:27;97584.00;;;17.28;75.95
62025;BME280;47978;49.118;12.146;2022-08-02T00:27:53;97588.06;;;17.30;76.21
62025;BME280;47978;49.118;12.146;2022-08-02T00:30:20;97598.63;;;17.13;76.66
62025;BME280;47978;49.118;12.146;2022-08-02T00:32:47;97592.81;;;17.18;76.27
62025;BME280;47978;49.118;12.146;2022-08-02T00:35:13;97596.19;;;17.23;76.48
62025;BME280;47978;49.118;12.146;2022-08-02T00:37:40;97599.22;;;17.18;76.57
62025;BME280;47978;49.118;12.146;2022-08-02T00:40:09;97590.50;;;17.20;76.26
62025;BME280;47978;49.118;12.146;2022-08-02T00:42:37;97590.03;;;17.18;76.48
62025;BME280;47978;49.118;12.146;2022-08-02T00:45:04;97589.66;;;17.07;76.83
62025;BME280;47978;49.118;12.146;2022-08-02T00:47:31;97595.25;;;17.07;77.05
62025;BME280;47978;49.118;12.146;2022-08-02T00:49:57;97598.59;;;17.00;76.97
62025;BME280;47978;49.118;12.146;2022-08-02T00:52:24;97593.25;;;16.95;77.05
62025;BME280;47978;49.118;12.146;2022-08-02T00:54:51;97600.47;;;16.96;77.42
62025;BME280;47978;49.118;12.146;2022-08-02T00:57:19;97598.31;;;16.81;78.18
62025;BME280;47978;49.118;12.146;2022-08-02T00:59:45;97596.22;;;16.78;78.26
62025;BME280;47978;49.118;12.146;2022-08-02T01:02:12;97598.47;;;16.63;78.78
62025;BME280;47978;49.118;12.146;2022-08-02T01:04:39;97608.63;;;16.68;78.44
62025;BME280;47978;49.118;12.146;2022-08-02T01:07:05;97603.38;;;16.67;78.52
62025;BME280;47978;49.118;12.146;2022-08-02T01:09:40;97595.56;;;16.60;78.58
62025;BME280;47978;49.118;12.146;2022-08-02T01:12:07;97598.69;;;16.58;78.98
62025;BME280;47978;49.118;12.146;2022-08-02T01:14:36;97595.97;;;16.50;79.27
62025;BME280;47978;49.118;12.146;2022-08-02T01:17:10;97596.53;;;16.43;79.72
62025;BME280;47978;49.118;12.146;2022-08-02T01:19:42;97594.06;;;16.41;79.39
62025;BME280;47978;49.118;12.146;2022-08-02T01:22:31;97591.63;;;16.40;79.31
62025;BME280;47978;49.118;12.146;2022-08-02T01:25:32;97594.69;;;16.26;80.25
62025;BME280;47978;49.118;12.146;2022-08-02T01:28:10;97579.31;;;16.20;80.46
62025;BME280;47978;49.118;12.146;2022-08-02T01:30:41;97578.16;;;16.21;80.24
62025;BME280;47978;49.118;12.146;2022-08-02T01:33:11;97575.25;;;16.17;80.07
62025;BME280;47978;49.118;12.146;2022-08-02T01:35:44;97581.63;;;16.18;80.10
62025;BME280;47978;49.118;12.146;2022-08-02T01:38:26;97577.50;;;16.03;80.62
62025;BME280;47978;49.118;12.146;2022-08-02T01:40:55;97583.56;;;16.05;80.77
62025;BME280;47978;49.118;12.146;2022-08-02T01:43:27;97576.81;;;16.06;80.68
62025;BME280;47978;49.118;12.146;2022-08-02T01:45:55;97577.00;;;16.01;80.93
62025;BME280;47978;49.118;12.146;2022-08-02T01:48:24;97570.06;;;15.86;81.58
62025;BME280;47978;49.118;12.146;2022-08-02T01:50:52;97572.22;;;15.81;82.01
62025;BME280;47978;49.118;12.146;2022-08-02T01:53:19;97570.56;;;15.88;81.68
62025;BME280;47978;49.118;12.146;2022-08-02T01:55:49;97569.06;;;15.91;80.92
62025;BME280;47978;49.118;12.146;2022-08-02T01:58:27;97579.03;;;15.92;81.35
62025;BME280;47978;49.118;12.146;2022-08-02T02:00:56;97573.78;;;15.90;81.45
62025;BME280;47978;49.118;12.146;2022-08-02T02:03:25;97577.56;;;15.94;81.15
62025;BME280;47978;49.118;12.146;2022-08-02T02:05:54;97575.38;;;16.00;80.84
62025;BME280;47978;49.118;12.146;2022-08-02T02:08:25;97574.28;;;15.92;81.06
62025;BME280;47978;49.118;12.146;2022-08-02T02:10:53;97569.09;;;15.82;81.45
62025;BME280;47978;49.118;12.146;2022-08-02T02:13:21;97586.38;;;15.76;81.95
62025;BME280;47978;49.118;12.146;2022-08-02T02:16:02;97589.19;;;15.67;82.25
62025;BME280;47978;49.118;12.146;2022-08-02T02:18:31;97588.06;;;15.59;82.51
62025;BME280;47978;49.118;12.146;2022-08-02T02:20:59;97590.03;;;15.59;82.38
62025;BME280;47978;49.118;12.146;2022-08-02T02:23:26;97588.59;;;15.52;82.84
62025;BME280;47978;49.118;12.146;2022-08-02T02:25:59;97591.56;;;15.47;83.04
62025;BME280;47978;49.118;12.146;2022-08-02T02:28:30;97585.72;;;15.40;83.49
62025;BME280;47978;49.118;12.146;2022-08-02T02:31:02;97586.41;;;15.37;83.77
62025;BME280;47978;49.118;12.146;2022-08-02T02:33:32;97588.19;;;15.33;83.56
62025;BME280;47978;49.118;12.146;2022-08-02T02:35:59;97589.81;;;15.43;83.12
62025;BME280;47978;49.118;12.146;2022-08-02T02:38:30;97588.78;;;15.47;83.26
62025;BME280;47978;49.118;12.146;2022-08-02T02:40:59;97591.56;;;15.47;83.08
62025;BME280;47978;49.118;12.146;2022-08-02T02:43:27;97590.91;;;15.50;82.91
62025;BME280;47978;49.118;12.146;2022-08-02T02:45:56;97597.41;;;15.63;82.69
62025;BME280;47978;49.118;12.146;2022-08-02T02:48:25;97602.81;;;15.68;81.75
62025;BME280;47978;49.118;12.146;2022-08-02T02:50:53;97604.66;;;15.56;82.41
62025;BME280;47978;49.118;12.146;2022-08-02T02:53:20;97606.44;;;15.60;82.02
62025;BME280;47978;49.118;12.146;2022-08-02T02:55:48;97609.47;;;15.46;82.73
62025;BME280;47978;49.118;12.146;2022-08-02T02:58:28;97609.50;;;15.38;83.31
62025;BME280;47978;49.118;12.146;2022-08-02T03:00:55;97614.34;;;15.20;84.59
62025;BME280;47978;49.118;12.146;2022-08-02T03:03:25;97618.34;;;15.31;84.02
62025;BME280;47978;49.118;12.146;2022-08-02T03:05:52;97618.84;;;15.33;83.22
62025;BME280;47978;49.118;12.146;2022-08-02T03:08:19;97622.13;;;15.35;83.17
62025;BME280;47978;49.118;12.146;2022-08-02T03:10:46;97622.22;;;15.47;82.65
62025;BME280;47978;49.118;12.146;2022-08-02T03:13:13;97630.94;;;15.46;82.71
62025;BME280;47978;49.118;12.146;2022-08-02T03:15:41;97632.44;;;15.43;82.78
62025;BME280;47978;49.118;12.146;2022-08-02T03:18:08;97632.97;;;15.28;83.03
62025;BME280;47978;49.118;12.146;2022-08-02T03:20:36;97637.06;;;15.30;83.45
62025;BME280;47978;49.118;12.146;2022-08-02T03:23:03;97636.06;;;15.35;82.99
62025;BME280;47978;49.118;12.146;2022-08-02T03:25:30;97642.84;;;15.25;83.24
62025;BME280;47978;49.118;12.146;2022-08-02T03:27:56;97637.44;;;15.20;83.53
62025;BME280;47978;49.118;12.146;2022-08-02T03:30:23;97637.63;;;15.15;83.72
62025;BME280;47978;49.118;12.146;2022-08-02T03:32:50;97633.63;;;15.25;83.25
62025;BME280;47978;49.118;12.146;2022-08-02T03:35:17;97644.44;;;15.35;82.93
62025;BME280;47978;49.118;12.146;2022-08-02T03:37:51;97645.13;;;15.23;83.31
62025;BME280;47978;49.118;12.146;2022-08-02T03:40:19;97649.03;;;15.22;83.37
62025;BME280;47978;49.118;12.146;2022-08-02T03:42:46;97654.63;;;15.22;83.32
62025;BME280;47978;49.118;12.146;2022-08-02T03:45:15;97650.56;;;15.02;84.42
62025;BME280;47978;49.118;12.146;2022-08-02T03:47:42;97663.22;;;14.91;85.31
62025;BME280;47978;49.118;12.146;2022-08-02T03:50:11;97647.50;;;14.95;84.85
62025;BME280;47978;49.118;12.146;2022-08-02T03:52:39;97648.44;;;14.99;85.08
62025;BME280;47978;49.118;12.146;2022-08-02T03:55:08;97646.50;;;14.91;85.61
62025;BME280;47978;49.118;12.146;2022-08-02T03:57:36;97653.38;;;14.94;85.38
62025;BME280;47978;49.118;12.146;2022-08-02T04:00:04;97649.63;;;14.90;85.15
62025;BME280;47978;49.118;12.146;2022-08-02T04:02:31;97654.72;;;14.88;85.65
62025;BME280;47978;49.118;12.146;2022-08-02T04:04:57;97664.53;;;14.85;85.92
62025;BME280;47978;49.118;12.146;2022-08-02T04:07:24;97666.00;;;14.82;85.63
62025;BME280;47978;49.118;12.146;2022-08-02T04:10:12;97663.41;;;14.86;85.53
62025;BME280;47978;49.118;12.146;2022-08-02T04:12:39;97659.47;;;14.87;85.53
62025;BME280;47978;49.118;12.146;2022-08-02T04:15:07;97658.31;;;14.88;85.41
62025;BME280;47978;49.118;12.146;2022-08-02T04:17:39;97662.09;;;14.75;86.33
62025;BME280;47978;49.118;12.146;2022-08-02T04:20:09;97661.63;;;14.73;86.16
62025;BME280;47978;49.118;12.146;2022-08-02T04:22:39;97657.84;;;14.77;86.50
62025;BME280;47978;49.118;12.146;2022-08-02T04:25:09;97650.97;;;14.83;85.82
62025;BME280;47978;49.118;12.146;2022-08-02T04:27:45;97647.38;;;14.83;85.82
62025;BME280;47978;49.118;12.146;2022-08-02T04:30:32;97655.53;;;14.88;85.97
62025;BME280;47978;49.118;12.146;2022-08-02T04:32:59;97652.72;;;14.88;85.93
62025;BME280;47978;49.118;12.146;2022-08-02T04:35:26;97660.25;;;14.96;85.83
62025;BME280;47978;49.118;12.146;2022-08-02T04:37:53;97656.63;;;15.13;84.68
62025;BME280;47978;49.118;12.146;2022-08-02T04:40:35;97658.56;;;15.21;84.57
62025;BME280;47978;49.118;12.146;2022-08-02T04:43:04;97660.38;;;15.26;84.48
62025;BME280;47978;49.118;12.146;2022-08-02T04:45:30;97657.53;;;15.35;84.22
62025;BME280;47978;49.118;12.146;2022-08-02T04:47:57;97665.91;;;15.35;84.22
62025;BME280;47978;49.118;12.146;2022-08-02T04:50:32;97672.78;;;15.37;84.21
62025;BME280;47978;49.118;12.146;2022-08-02T04:52:58;97671.94;;;15.45;84.41
62025;BME280;47978;49.118;12.146;2022-08-02T04:55:25;97675.19;;;15.47;84.65
62025;BME280;47978;49.118;12.146;2022-08-02T04:57:53;97676.63;;;15.53;84.46
62025;BME280;47978;49.118;12.146;2022-08-02T05:00:21;97676.59;;;15.62;83.98
62025;BME280;47978;49.118;12.146;2022-08-02T05:02:48;97676.88;;;15.78;83.31
62025;BME280;47978;49.118;12.146;2022-08-02T05:05:15;97685.16;;;15.95;82.85
62025;BME280;47978;49.118;12.146;2022-08-02T05:07:41;97686.53;;;16.10;82.56
62025;BME280;47978;49.118;12.146;2022-08-02T05:10:08;97702.47;;;16.10;82.71
62025;BME280;47978;49.118;12.146;2022-08-02T05:12:36;97700.25;;;16.24;82.78
62025;BME280;47978;49.118;12.146;2022-08-02T05:15:03;97700.81;;;16.38;82.38
62025;BME280;47978;49.118;12.146;2022-08-02T05:17:31;97692.84;;;16.28;83.13
62025;BME280;47978;49.118;12.146;2022-08-02T05:19:58;97700.22;;;16.54;81.67
62025;BME280;47978;49.118;12.146;2022-08-02T05:22:24;97698.09;;;16.72;81.86
62025;BME280;47978;49.118;12.146;2022-08-02T05:24:51;97697.84;;;17.19;80.88
62025;BME280;47978;49.118;12.146;2022-08-02T05:27:18;97687.81;;;17.51;78.99
62025;BME280;47978;49.118;12.146;2022-08-02T05:29:47;97698.66;;;18.38;76.10
62025;BME280;47978;49.118;12.146;2022-08-02T05:32:19;97692.25;;;18.50;75.30
62025;BME280;47978;49.118;12.146;2022-08-02T05:34:50;97695.31;;;18.85;73.39
62025;BME280;47978;49.118;12.146;2022-08-02T05:37:17;97686.44;;;18.83;74.84
62025;BME280;47978;49.118;12.146;2022-08-02T05:39:44;97683.78;;;19.03;74.59
62025;BME280;47978;49.118;12.146;2022-08-02T05:42:22;97689.50;;;19.06;74.37
62025;BME280;47978;49.118;12.146;2022-08-02T05:44:48;97689.78;;;19.45;74.58
62025;BME280;47978;49.118;12.146;2022-08-02T05:47:15;97683.69;;;19.27;75.96
62025;BME280;47978;49.118;12.146;2022-08-02T05:49:42;97687.78;;;19.02;78.81
62025;BME280;47978;49.118;12.146;2022-08-02T05:52:14;97685.00;;;19.77;76.07
62025;BME280;47978;49.118;12.146;2022-08-02T05:54:48;97674.69;;;20.49;73.28
62025;BME280;47978;49.118;12.146;2022-08-02T05:57:19;97678.06;;;19.87;75.95
62025;BME280;47978;49.118;12.146;2022-08-02T06:00:00;97687.81;;;19.62;77.29
62025;BME280;47978;49.118;12.146;2022-08-02T06:02:29;97696.47;;;19.57;77.00
62025;BME280;47978;49.118;12.146;2022-08-02T06:05:03;97688.94;;;19.73;76.26
62025;BME280;47978;49.118;12.146;2022-08-02T06:07:34;97684.94;;;19.74;76.07
62025;BME280;47978;49.118;12.146;2022-08-02T06:10:02;97691.09;;;19.80;75.58
62025;BME280;47978;49.118;12.146;2022-08-02T06:12:31;97686.03;;;19.85;75.35
62025;BME280;47978;49.118;12.146;2022-08-02T06:14:58;97693.59;;;20.00;75.27
62025;BME280;47978;49.118;12.146;2022-08-02T06:17:24;97691.78;;;20.24;74.66
62025;BME280;47978;49.118;12.146;2022-08-02T06:19:52;97697.38;;;20.75;71.81
62025;BME280;47978;49.118;12.146;2022-08-02T06:22:24;97702.16;;;20.75;72.49
62025;BME280;47978;49.118;12.146;2022-08-02T06:25:04;97703.09;;;20.79;72.06
62025;BME280;47978;49.118;12.146;2022-08-02T06:27:32;97703.31;;;20.89;71.46
62025;BME280;47978;49.118;12.146;2022-08-02T06:30:00;97701.38;;;20.94;70.91
62025;BME280;47978;49.118;12.146;2022-08-02T06:32:27;97707.53;;;21.38;70.09
62025;BME280;47978;49.118;12.146;2022-08-02T06:34:53;97700.13;;;21.72;68.35
62025;BME280;47978;49.118;12.146;2022-08-02T06:37:26;97696.91;;;22.73;65.22
62025;BME280;47978;49.118;12.146;2022-08-02T06:39:58;97695.47;;;23.17;62.61
62025;BME280;47978;49.118;12.146;2022-08-02T06:42:35;97700.69;;;23.11;62.69
62025;BME280;47978;49.118;12.146;2022-08-02T06:45:03;97708.31;;;22.80;63.33
62025;BME280;47978;49.118;12.146;2022-08-02T06:47:30;97704.50;;;24.08;60.76
62025;BME280;47978;49.118;12.146;2022-08-02T06:49:56;97692.59;;;24.32;59.37
62025;BME280;47978;49.118;12.146;2022-08-02T06:52:25;97710.69;;;23.76;60.10
62025;BME280;47978;49.118;12.146;2022-08-02T06:54:54;97702.41;;;23.97;58.85
62025;BME280;47978;49.118;12.146;2022-08-02T06:57:21;97702.22;;;23.76;60.17
62025;BME280;47978;49.118;12.146;2022-08-02T06:59:49;97706.66;;;23.40;61.82
62025;BME280;47978;49.118;12.146;2022-08-02T07:02:16;97705.34;;;23.33;61.81
62025;BME280;47978;49.118;12.146;2022-08-02T07:04:42;97700.41;;;22.93;63.46
62025;BME280;47978;49.118;12.146;2022-08-02T07:07:09;97696.09;;;23.33;61.52
62025;BME280;47978;49.118;12.146;2022-08-02T07:09:35;97709.16;;;22.84;63.39
62025;BME280;47978;49.118;12.146;2022-08-02T07:12:03;97704.75;;;22.87;63.37
62025;BME280;47978;49.118;12.146;2022-08-02T07:14:29;97694.97;;;22.77;63.12
62025;BME280;47978;49.118;12.146;2022-08-02T07:16:58;97691.63;;;22.98;63.56
62025;BME280;47978;49.118;12.146;2022-08-02T07:19:26;97701.38;;;23.04;62.91
62025;BME280;47978;49.118;12.146;2022-08-02T07:22:03;97697.03;;;22.80;63.53
62025;BME280;47978;49.118;12.146;2022-08-02T07:24:30;97696.78;;;22.93;63.18
62025;BME280;47978;49.118;12.146;2022-08-02T07:26:57;97693.44;;;22.83;63.17
62025;BME280;47978;49.118;12.146;2022-08-02T07:29:37;97700.75;;;23.18;62.47
62025;BME280;47978;49.118;12.146;2022-08-02T07:32:14;97692.25;;;23.15;62.51
62025;BME280;47978;49.118;12.146;2022-08-02T07:34:41;97690.41;;;23.29;62.00
62025;BME280;47978;49.118;12.146;2022-08-02T07:37:15;97690.03;;;23.31;61.37
62025;BME280;47978;49.118;12.146;2022-08-02T07:40:02;97692.13;;;23.75;60.83
62025;BME280;47978;49.118;12.146;2022-08-02T07:42:37;97692.75;;;23.61;60.63
62025;BME280;47978;49.118;12.146;2022-08-02T07:45:05;97699.47;;;23.46;61.04
62025;BME280;47978;49.118;12.146;2022-08-02T07:47:35;97691.16;;;24.05;59.82
62025;BME280;47978;49.118;12.146;2022-08-02T07:50:02;97699.84;;;23.82;59.88
62025;BME280;47978;49.118;12.146;2022-08-02T07:52:28;97694.97;;;23.78;60.13
62025;BME280;47978;49.118;12.146;2022-08-02T07:54:55;97692.38;;;23.63;60.51
62025;BME280;47978;49.118;12.146;2022-08-02T07:57:21;97690.09;;;23.75;60.26
62025;BME280;47978;49.118;12.146;2022-08-02T07:59:48;97680.03;;;23.78;60.12
62025;BME280;47978;49.118;12.146;2022-08-02T08:02:15;97678.88;;;24.31;58.97
62025;BME280;47978;49.118;12.146;2022-08-02T08:04:43;97675.78;;;24.46;58.61
62025;BME280;47978;49.118;12.146;2022-08-02T08:07:09;97670.97;;;24.54;58.35
62025;BME280;47978;49.118;12.146;2022-08-02T08:09:36;97674.81;;;24.28;58.36
62025;BME280;47978;49.118;12.146;2022-08-02T08:12:03;97666.34;;;24.28;59.35
62025;BME280;47978;49.118;12.146;2022-08-02T08:14:31;97661.97;;;24.38;59.21
62025;BME280;47978;49.118;12.146;2022-08-02T08:16:59;97664.19;;;24.69;58.25
62025;BME280;47978;49.118;12.146;2022-08-02T08:19:26;97663.47;;;24.87;57.23
62025;BME280;47978;49.118;12.146;2022-08-02T08:22:13;97664.78;;;25.07;56.93
62025;BME280;47978;49.118;12.146;2022-08-02T08:24:40;97663.94;;;25.00;56.84
62025;BME280;47978;49.118;12.146;2022-08-02T08:27:07;97672.84;;;25.02;55.90
62025;BME280;47978;49.118;12.146;2022-08-02T08:29:33;97664.38;;;25.05;55.48
62025;BME280;47978;49.118;12.146;2022-08-02T08:32:00;97662.25;;;24.84;57.15
62025;BME280;47978;49.118;12.146;2022-08-02T08:34:26;97668.13;;;25.31;56.11
62025;BME280;47978;49.118;12.146;2022-08-02T08:36:53;97660.91;;;25.69;54.90
62025;BME280;47978;49.118;12.146;2022-08-02T08:39:21;97660.88;;;25.44;55.91
62025;BME280;47978;49.118;12.146;2022-08-02T08:41:47;97658.44;;;25.50;55.79
62025;BME280;47978;49.118;12.146;2022-08-02T08:44:14;97668.84;;;25.13;56.35
62025;BME280;47978;49.118;12.146;2022-08-02T08:46:41;97666.34;;;24.90;57.42
62025;BME280;47978;49.118;12.146;2022-08-02T08:49:19;97667.88;;;24.81;57.42
62025;BME280;47978;49.118;12.146;2022-08-02T08:51:46;97660.63;;;24.80;57.11
62025;BME280;47978;49.118;12.146;2022-08-02T08:54:15;97662.44;;;25.20;56.37
62025;BME280;47978;49.118;12.146;2022-08-02T08:56:44;97661.66;;;25.30;55.06
62025;BME280;47978;49.118;12.146;2022-08-02T08:59:10;97662.50;;;25.42;54.88
62025;BME280;47978;49.118;12.146;2022-08-02T09:01:37;97667.31;;;25.38;55.38
62025;BME280;47978;49.118;12.146;2022-08-02T09:04:16;97672.16;;;25.30;55.47
62025;BME280;47978;49.118;12.146;2022-08-02T09:06:43;97671.31;;;25.19;55.92
62025;BME280;47978;49.118;12.146;2022-08-02T09:09:09;97677.84;;;25.33;55.27
62025;BME280;47978;49.118;12.146;2022-08-02T09:11:36;97675.47;;;25.57;54.17
62025;BME280;47978;49.118;12.146;2022-08-02T09:14:04;97683.25;;;25.85;53.22
62025;BME280;47978;49.118;12.146;2022-08-02T09:16:33;97680.00;;;25.83;52.99
62025;BME280;47978;49.118;12.146;2022-08-02T09:19:01;97677.94;;;25.76;53.98
62025;BME280;47978;49.118;12.146;2022-08-02T09:21:41;97690.13;;;25.88;53.92
62025;BME280;47978;49.118;12.146;2022-08-02T09:24:15;97686.84;;;25.82;53.70
62025;BME280;47978;49.118;12.146;2022-08-02T09:26:42;97685.25;;;25.85;52.61
62025;BME280;47978;49.118;12.146;2022-08-02T09:29:11;97677.91;;;25.69;52.29
62025;BME280;47978;49.118;12.146;2022-08-02T09:31:37;97671.47;;;25.76;53.94
62025;BME280;47978;49.118;12.146;2022-08-02T09:34:15;97678.69;;;25.55;52.37
62025;BME280;47978;49.118;12.146;2022-08-02T09:36:46;97679.13;;;25.75;52.75
62025;BME280;47978;49.118;12.146;2022-08-02T09:39:14;97672.72;;;25.93;52.84
62025;BME280;47978;49.118;12.146;2022-08-02T09:41:42;97675.53;;;26.36;50.91
62025;BME280;47978;49.118;12.146;2022-08-02T09:44:11;97673.13;;;26.56;51.04
62025;BME280;47978;49.118;12.146;2022-08-02T09:46:42;97675.13;;;26.34;50.81
62025;BME280;47978;49.118;12.146;2022-08-02T09:49:11;97683.63;;;26.27;50.02
62025;BME280;47978;49.118;12.146;2022-08-02T09:51:46;97675.94;;;26.31;50.70
62025;BME280;47978;49.118;12.146;2022-08-02T09:54:16;97669.06;;;26.57;49.32
62025;BME280;47978;49.118;12.146;2022-08-02T09:56:44;97673.88;;;26.49;50.17
62025;BME280;47978;49.118;12.146;2022-08-02T09:59:13;97678.78;;;26.27;48.59
62025;BME280;47978;49.118;12.146;2022-08-02T10:01:41;97665.44;;;26.28;48.82
62025;BME280;47978;49.118;12.146;2022-08-02T10:04:18;97665.00;;;26.61;48.71
62025;BME280;47978;49.118;12.146;2022-08-02T10:06:50;97664.19;;;26.57;48.76
62025;BME280;47978;49.118;12.146;2022-08-02T10:09:17;97664.19;;;26.03;50.53
62025;BME280;47978;49.118;12.146;2022-08-02T10:11:44;97654.84;;;25.78;51.60
62025;BME280;47978;49.118;12.146;2022-08-02T10:14:13;97656.88;;;25.67;50.52
62025;BME280;47978;49.118;12.146;2022-08-02T10:16:41;97649.16;;;25.64;47.48
62025;BME280;47978;49.118;12.146;2022-08-02T10:19:08;97655.22;;;25.58;48.13
62025;BME280;47978;49.118;12.146;2022-08-02T10:21:39;97643.94;;;25.62;47.42
62025;BME280;47978;49.118;12.146;2022-08-02T10:24:14;97648.81;;;26.01;47.78
62025;BME280;47978;49.118;12.146;2022-08-02T10:26:42;97647.97;;;26.40;46.60
62025;BME280;47978;49.118;12.146;2022-08-02T10:29:10;97646.72;;;26.73;45.75
62025;BME280;47978;49.118;12.146;2022-08-02T10:31:43;97647.03;;;26.97;43.72
62025;BME280;47978;49.118;12.146;2022-08-02T10:34:15;97645.13;;;26.65;42.64
62025;BME280;47978;49.118;12.146;2022-08-02T10:36:44;97648.38;;;26.56;43.17
62025;BME280;47978;49.118;12.146;2022-08-02T10:39:12;97639.78;;;26.88;42.56
62025;BME280;47978;49.118;12.146;2022-08-02T10:41:43;97637.72;;;26.89;42.09
62025;BME280;47978;49.118;12.146;2022-08-02T10:44:18;97636.84;;;27.06;41.62
62025;BME280;47978;49.118;12.146;2022-08-02T10:46:52;97629.59;;;26.98;40.54
62025;BME280;47978;49.118;12.146;2022-08-02T10:49:20;97620.16;;;27.26;41.10
62025;BME280;47978;49.118;12.146;2022-08-02T10:52:08;97606.22;;;27.46;40.94
62025;BME280;47978;49.118;12.146;2022-08-02T10:54:38;97606.97;;;27.57;42.18
62025;BME280;47978;49.118;12.146;2022-08-02T10:57:17;97601.44;;;27.36;43.27
62025;BME280;47978;49.118;12.146;2022-08-02T10:59:44;97584.34;;;27.47;43.27
62025;BME280;47978;49.118;12.146;2022-08-02T11:02:12;97593.66;;;27.47;41.40
62025;BME280;47978;49.118;12.146;2022-08-02T11:05:02;97592.31;;;27.63;41.71
62025;BME280;47978;49.118;12.146;2022-08-02T11:07:34;97595.19;;;27.59;42.29
62025;BME280;47978;49.118;12.146;2022-08-02T11:10:26;97596.31;;;27.72;41.17
62025;BME280;47978;49.118;12.146;2022-08-02T11:13:00;97601.75;;;27.49;41.57
62025;BME280;47978;49.118;12.146;2022-08-02T11:15:27;97597.81;;;27.28;42.71
62025;BME280;47978;49.118;12.146;2022-08-02T11:17:56;97595.78;;;27.32;41.71
62025;BME280;47978;49.118;12.146;2022-08-02T11:20:24;97587.66;;;27.34;41.49
62025;BME280;47978;49.118;12.146;2022-08-02T11:22:52;97593.34;;;27.31;41.02
62025;BME280;47978;49.118;12.146;2022-08-02T11:25:32;97595.69;;;27.47;39.39
62025;BME280;47978;49.118;12.146;2022-08-02T11:28:19;97585.06;;;27.54;40.65
62025;BME280;47978;49.118;12.146;2022-08-02T11:30:55;97584.88;;;27.87;40.09
62025;BME280;47978;49.118;12.146;2022-08-02T11:33:29;97581.00;;;28.08;41.83
62025;BME280;47978;49.118;12.146;2022-08-02T11:36:00;97590.44;;;28.42;41.75
62025;BME280;47978;49.118;12.146;2022-08-02T11:38:27;97590.94;;;28.30;41.28
62025;BME280;47978;49.118;12.146;2022-08-02T11:40:53;97584.47;;;28.26;41.75
62025;BME280;47978;49.118;12.146;2022-08-02T11:43:24;97588.38;;;28.46;41.30
62025;BME280;47978;49.118;12.146;2022-08-02T11:45:52;97588.31;;;28.50;39.23
62025;BME280;47978;49.118;12.146;2022-08-02T11:48:39;97592.78;;;28.51;37.79
62025;BME280;47978;49.118;12.146;2022-08-02T11:51:07;97592.31;;;28.56;37.49
62025;BME280;47978;49.118;12.146;2022-08-02T11:53:45;97589.75;;;28.69;38.44
62025;BME280;47978;49.118;12.146;2022-08-02T11:56:13;97580.97;;;28.87;37.39
62025;BME280;47978;49.118;12.146;2022-08-02T11:59:01;97582.91;;;28.93;36.61
62025;BME280;47978;49.118;12.146;2022-08-02T12:01:29;97573.94;;;29.26;36.66
62025;BME280;47978;49.118;12.146;2022-08-02T12:03:59;97576.94;;;29.46;36.36
62025;BME280;47978;49.118;12.146;2022-08-02T12:06:27;97570.91;;;29.40;35.72
62025;BME280;47978;49.118;12.146;2022-08-02T12:08:58;97583.34;;;29.23;33.69
62025;BME280;47978;49.118;12.146;2022-08-02T12:11:25;97581.69;;;29.25;34.61
62025;BME280;47978;49.118;12.146;2022-08-02T12:14:05;97585.84;;;29.21;35.08
62025;BME280;47978;49.118;12.146;2022-08-02T12:16:34;97575.69;;;29.47;34.30
62025;BME280;47978;49.118;12.146;2022-08-02T12:19:02;97570.13;;;29.09;35.24
62025;BME280;47978;49.118;12.146;2022-08-02T12:21:29;97574.13;;;28.81;35.54
62025;BME280;47978;49.118;12.146;2022-08-02T12:23:55;97565.38;;;28.64;36.43
62025;BME280;47978;49.118;12.146;2022-08-02T12:26:26;97560.47;;;28.99;35.54
62025;BME280;47978;49.118;12.146;2022-08-02T12:28:54;97563.63;;;29.35;34.72
62025;BME280;47978;49.118;12.146;2022-08-02T12:31:21;97561.81;;;29.49;35.13
62025;BME280;47978;49.118;12.146;2022-08-02T12:34:25;97553.00;;;29.67;36.03
62025;BME280;47978;49.118;12.146;2022-08-02T12:37:03;97558.56;;;29.74;36.97
62025;BME280;47978;49.118;12.146;2022-08-02T12:39:38;97546.06;;;29.68;35.18
62025;BME280;47978;49.118;12.146;2022-08-02T12:42:06;97544.41;;;29.43;35.04
62025;BME280;47978;49.118;12.146;2022-08-02T12:44:36;97543.09;;;29.48;36.81
62025;BME280;47978;49.118;12.146;2022-08-02T12:47:05;97550.78;;;29.78;36.60
62025;BME280;47978;49.118;12.146;2022-08-02T12:49:34;97544.38;;;29.94;34.43
62025;BME280;47978;49.118;12.146;2022-08-02T12:52:01;97541.53;;;30.17;33.50
62025;BME280;47978;49.118;12.146;2022-08-02T12:54:37;97539.00;;;29.76;34.14
62025;BME280;47978;49.118;12.146;2022-08-02T12:57:11;97535.16;;;29.59;33.92
62025;BME280;47978;49.118;12.146;2022-08-02T12:59:39;97537.28;;;29.55;34.20
62025;BME280;47978;49.118;12.146;2022-08-02T13:02:07;97543.09;;;29.75;33.92
62025;BME280;47978;49.118;12.146;2022-08-02T13:04:36;97532.50;;;29.48;34.22